sensor_id;sensor_type;location;lat;lon;timestamp;temperature;humidity
2967;DHT22;1493;51.496;7.210;2024-01-27T00:00:10;4.10;99.90
2967;DHT22;1493;51.496;7.210;2024-01-27T00:02:37;4.10;99.90
2967;DHT22;1493;51.496;7.210;2024-01-27T00:05:04;4.10;99.90
2967;DHT22;1493;51.496;7.210;2024-01-27T00:07:33;4.00;99.90
2967;DHT22;1493;51.496;7.210;2024-01-27T00:09:59;4.00;99.90
2967;DHT22;1493;51.496;7.210;2024-01-27T00:12:26;4.00;99.90
2967;DHT22;1493;51.496;7.210;2024-01-27T00:14:53;4.00;99.90
2967;DHT22;1493;51.496;7.210;2024-01-27T00:17:20;4.00;99.90
2967;DHT22;1493;51.496;7.210;2024-01-27T00:19:49;4.00;99.90
2967;DHT22;1493;51.496;7.210;2024-01-27T00:22:16;3.90;99.90
2967;DHT22;1493;51.496;7.210;2024-01-27T00:24:44;4.00;99.90
2967;DHT22;1493;51.496;7.210;2024-01-27T00:27:11;4.00;99.90
2967;DHT22;1493;51.496;7.210;2024-01-27T00:29:38;4.00;99.90
2967;DHT22;1493;51.496;7.210;2024-01-27T00:32:05;4.00;99.90
2967;DHT22;1493;51.496;7.210;2024-01-27T00:34:32;4.00;99.90
2967;DHT22;1493;51.496;7.210;2024-01-27T00:36:59;4.00;99.90
2967;DHT22;1493;51.496;7.210;2024-01-27T00:39:26;3.90;99.90
2967;DHT22;1493;51.496;7.210;2024-01-27T00:41:54;3.90;99.90
2967;DHT22;1493;51.496;7.210;2024-01-27T00:44:23;3.90;99.90
2967;DHT22;1493;51.496;7.210;2024-01-27T00:46:50;3.90;99.90
2967;DHT22;1493;51.496;7.210;2024-01-27T00:49:17;3.90;99.90
2967;DHT22;1493;51.496;7.210;2024-01-27T00:51:44;3.90;99.90
2967;DHT22;1493;51.496;7.210;2024-01-27T00:54:11;3.90;99.90
2967;DHT22;1493;51.496;7.210;2024-01-27T00:56:37;3.80;99.90
2967;DHT22;1493;51.496;7.210;2024-01-27T00:59:05;3.80;99.90
2967;DHT22;1493;51.496;7.210;2024-01-27T01:01:31;3.80;99.90
2967;DHT22;1493;51.496;7.210;2024-01-27T01:03:58;3.80;99.90
2967;DHT22;1493;51.496;7.210;2024-01-27T01:06:25;3.70;99.90
2967;DHT22;1493;51.496;7.210;2024-01-27T01:08:52;3.70;99.90
2967;DHT22;1493;51.496;7.210;2024-01-27T01:11:18;3.60;99.90
2967;DHT22;1493;51.496;7.210;2024-01-27T01:13:45;3.60;99.90
2967;DHT22;1493;51.496;7.210;2024-01-27T01:16:13;3.60;99.90
2967;DHT22;1493;51.496;7.210;2024-01-27T01:18:40;3.60;99.90
2967;DHT22;1493;51.496;7.210;2024-01-27T01:21:07;3.60;99.90
2967;DHT22;1493;51.496;7.210;2024-01-27T01:23:34;3.60;99.90
2967;DHT22;1493;51.496;7.210;2024-01-27T01:26:01;3.50;99.90
2967;DHT22;1493;51.496;7.210;2024-01-27T01:28:28;3.50;99.90
2967;DHT22;1493;51.496;7.210;2024-01-27T01:30:55;3.50;99.90
2967;DHT22;1493;51.496;7.210;2024-01-27T01:33:23;3.50;99.90
2967;DHT22;1493;51.496;7.210;2024-01-27T01:35:50;3.50;99.90
2967;DHT22;1493;51.496;7.210;2024-01-27T01:38:16;3.50;99.90
2967;DHT22;1493;51.496;7.210;2024-01-27T01:40:43;3.50;99.90
2967;DHT22;1493;51.496;7.210;2024-01-27T01:43:10;3.50;99.90
2967;DHT22;1493;51.496;7.210;2024-01-27T01:45:38;3.50;99.90
2967;DHT22;1493;51.496;7.210;2024-01-27T01:48:05;3.50;99.90
2967;DHT22;1493;51.496;7.210;2024-01-27T01:50:35;3.50;99.90
2967;DHT22;1493;51.496;7.210;2024-01-27T01:53:03;3.40;99.90
2967;DHT22;1493;51.496;7.210;2024-01-27T01:55:30;3.40;99.90
2967;DHT22;1493;51.496;7.210;2024-01-27T01:57:57;3.40;99.90
2967;DHT22;1493;51.496;7.210;2024-01-27T02:00:24;3.40;99.90
2967;DHT22;1493;51.496;7.210;2024-01-27T02:02:51;3.30;99.90
2967;DHT22;1493;51.496;7.210;2024-01-27T02:05:18;3.30;99.90
2967;DHT22;1493;51.496;7.210;2024-01-27T02:07:46;3.30;99.90
2967;DHT22;1493;51.496;7.210;2024-01-27T02:10:14;3.30;99.90
2967;DHT22;1493;51.496;7.210;2024-01-27T02:12:41;3.30;99.90
2967;DHT22;1493;51.496;7.210;2024-01-27T02:15:10;3.30;99.90
2967;DHT22;1493;51.496;7.210;2024-01-27T02:17:38;3.30;99.90
2967;DHT22;1493;51.496;7.210;2024-01-27T02:20:06;3.30;99.90
2967;DHT22;1493;51.496;7.210;2024-01-27T02:22:33;3.30;99.90
2967;DHT22;1493;51.496;7.210;2024-01-27T02:25:02;3.10;99.90
2967;DHT22;1493;51.496;7.210;2024-01-27T02:27:29;3.10;99.90
2967;DHT22;1493;51.496;7.210;2024-01-27T02:29:56;3.20;99.90
2967;DHT22;1493;51.496;7.210;2024-01-27T02:32:22;3.10;99.90
2967;DHT22;1493;51.496;7.210;2024-01-27T02:34:49;3.20;99.90
2967;DHT22;1493;51.496;7.210;2024-01-27T02:37:18;3.10;99.90
2967;DHT22;1493;51.496;7.210;2024-01-27T02:39:45;3.10;99.90
2967;DHT22;1493;51.496;7.210;2024-01-27T02:42:13;3.00;99.90
2967;DHT22;1493;51.496;7.210;2024-01-27T02:44:40;3.00;99.90
2967;DHT22;1493;51.496;7.210;2024-01-27T02:47:07;3.00;99.90
2967;DHT22;1493;51.496;7.210;2024-01-27T02:49:33;3.00;99.90
2967;DHT22;1493;51.496;7.210;2024-01-27T02:52:00;3.00;99.90
2967;DHT22;1493;51.496;7.210;2024-01-27T02:54:27;2.90;99.90
2967;DHT22;1493;51.496;7.210;2024-01-27T02:56:54;2.90;99.90
2967;DHT22;1493;51.496;7.210;2024-01-27T02:59:22;2.90;99.90
2967;DHT22;1493;51.496;7.210;2024-01-27T03:01:49;2.80;99.90
2967;DHT22;1493;51.496;7.210;2024-01-27T03:04:15;2.80;99.90
2967;DHT22;1493;51.496;7.210;2024-01-27T03:06:42;2.80;99.90
2967;DHT22;1493;51.496;7.210;2024-01-27T03:09:10;2.70;99.90
2967;DHT22;1493;51.496;7.210;2024-01-27T03:11:37;2.60;99.90
2967;DHT22;1493;51.496;7.210;2024-01-27T03:14:04;2.70;99.90
2967;DHT22;1493;51.496;7.210;2024-01-27T03:16:32;2.70;99.90
2967;DHT22;1493;51.496;7.210;2024-01-27T03:18:58;2.60;99.90
2967;DHT22;1493;51.496;7.210;2024-01-27T03:21:25;2.60;99.90
2967;DHT22;1493;51.496;7.210;2024-01-27T03:23:52;2.50;99.90
2967;DHT22;1493;51.496;7.210;2024-01-27T03:26:19;2.50;99.90
2967;DHT22;1493;51.496;7.210;2024-01-27T03:28:45;2.50;99.90
2967;DHT22;1493;51.496;7.210;2024-01-27T03:31:13;2.50;99.90
2967;DHT22;1493;51.496;7.210;2024-01-27T03:33:41;2.50;99.90
2967;DHT22;1493;51.496;7.210;2024-01-27T03:36:09;2.50;99.90
2967;DHT22;1493;51.496;7.210;2024-01-27T03:38:36;2.50;99.90
2967;DHT22;1493;51.496;7.210;2024-01-27T03:41:04;2.50;99.90
2967;DHT22;1493;51.496;7.210;2024-01-27T03:43:31;2.50;99.90
2967;DHT22;1493;51.496;7.210;2024-01-27T03:45:58;2.40;99.90
2967;DHT22;1493;51.496;7.210;2024-01-27T03:48:25;2.40;99.90
2967;DHT22;1493;51.496;7.210;2024-01-27T03:50:53;2.30;99.90
2967;DHT22;1493;51.496;7.210;2024-01-27T03:53:20;2.30;99.90
2967;DHT22;1493;51.496;7.210;2024-01-27T03:55:47;2.30;99.90
2967;DHT22;1493;51.496;7.210;2024-01-27T03:58:13;2.30;99.90
2967;DHT22;1493;51.496;7.210;2024-01-27T04:00:40;2.30;99.90
2967;DHT22;1493;51.496;7.210;2024-01-27T04:03:07;2.30;99.90
2967;DHT22;1493;51.496;7.210;2024-01-27T04:05:35;2.30;99.90
2967;DHT22;1493;51.496;7.210;2024-01-27T04:08:04;2.30;99.90
2967;DHT22;1493;51.496;7.210;2024-01-27T04:10:31;2.30;99.90
2967;DHT22;1493;51.496;7.210;2024-01-27T04:12:58;2.30;99.90
2967;DHT22;1493;51.496;7.210;2024-01-27T04:15:25;2.30;99.90
2967;DHT22;1493;51.496;7.210;2024-01-27T04:17:52;2.30;99.90
2967;DHT22;1493;51.496;7.210;2024-01-27T04:20:20;2.20;99.90
2967;DHT22;1493;51.496;7.210;2024-01-27T04:22:46;2.20;99.90
2967;DHT22;1493;51.496;7.210;2024-01-27T04:25:15;2.20;99.90
2967;DHT22;1493;51.496;7.210;2024-01-27T04:27:41;2.20;99.90
2967;DHT22;1493;51.496;7.210;2024-01-27T04:30:11;2.20;99.90
2967;DHT22;1493;51.496;7.210;2024-01-27T04:32:37;2.30;99.90
2967;DHT22;1493;51.496;7.210;2024-01-27T04:35:06;2.30;99.90
2967;DHT22;1493;51.496;7.210;2024-01-27T04:37:34;2.40;99.90
2967;DHT22;1493;51.496;7.210;2024-01-27T04:40:01;2.40;99.90
2967;DHT22;1493;51.496;7.210;2024-01-27T04:42:30;2.40;99.90
2967;DHT22;1493;51.496;7.210;2024-01-27T04:44:56;2.50;99.90
2967;DHT22;1493;51.496;7.210;2024-01-27T04:47:23;2.50;99.90
2967;DHT22;1493;51.496;7.210;2024-01-27T04:49:50;2.50;99.90
2967;DHT22;1493;51.496;7.210;2024-01-27T04:52:17;2.50;99.90
2967;DHT22;1493;51.496;7.210;2024-01-27T04:54:44;2.50;99.90
2967;DHT22;1493;51.496;7.210;2024-01-27T04:57:10;2.50;99.90
2967;DHT22;1493;51.496;7.210;2024-01-27T04:59:38;2.60;99.90
2967;DHT22;1493;51.496;7.210;2024-01-27T05:02:06;2.60;99.90
2967;DHT22;1493;51.496;7.210;2024-01-27T05:04:33;2.60;99.90
2967;DHT22;1493;51.496;7.210;2024-01-27T05:06:59;2.50;99.90
2967;DHT22;1493;51.496;7.210;2024-01-27T05:09:26;2.50;99.90
2967;DHT22;1493;51.496;7.210;2024-01-27T05:11:53;2.60;99.90
2967;DHT22;1493;51.496;7.210;2024-01-27T05:14:20;2.60;99.90
2967;DHT22;1493;51.496;7.210;2024-01-27T05:16:48;2.60;99.90
2967;DHT22;1493;51.496;7.210;2024-01-27T05:19:15;2.60;99.90
2967;DHT22;1493;51.496;7.210;2024-01-27T05:21:43;2.70;99.90
2967;DHT22;1493;51.496;7.210;2024-01-27T05:24:10;2.60;99.90
2967;DHT22;1493;51.496;7.210;2024-01-27T05:26:37;2.60;99.90
2967;DHT22;1493;51.496;7.210;2024-01-27T05:29:04;2.50;99.90
2967;DHT22;1493;51.496;7.210;2024-01-27T05:31:30;2.60;99.90
2967;DHT22;1493;51.496;7.210;2024-01-27T05:33:58;2.50;99.90
2967;DHT22;1493;51.496;7.210;2024-01-27T05:36:25;2.50;99.90
2967;DHT22;1493;51.496;7.210;2024-01-27T05:38:52;2.60;99.90
2967;DHT22;1493;51.496;7.210;2024-01-27T05:41:19;2.60;99.90
2967;DHT22;1493;51.496;7.210;2024-01-27T05:43:46;2.60;99.90
2967;DHT22;1493;51.496;7.210;2024-01-27T05:46:13;2.60;99.90
2967;DHT22;1493;51.496;7.210;2024-01-27T05:48:40;2.60;99.90
2967;DHT22;1493;51.496;7.210;2024-01-27T05:51:08;2.60;99.90
2967;DHT22;1493;51.496;7.210;2024-01-27T05:53:35;2.60;99.90
2967;DHT22;1493;51.496;7.210;2024-01-27T05:56:03;2.50;99.90
2967;DHT22;1493;51.496;7.210;2024-01-27T05:58:29;2.50;99.90
2967;DHT22;1493;51.496;7.210;2024-01-27T06:00:56;2.50;99.90
2967;DHT22;1493;51.496;7.210;2024-01-27T06:03:23;2.50;99.90
2967;DHT22;1493;51.496;7.210;2024-01-27T06:05:50;2.50;99.90
2967;DHT22;1493;51.496;7.210;2024-01-27T06:08:18;2.50;99.90
2967;DHT22;1493;51.496;7.210;2024-01-27T06:10:45;2.50;99.90
2967;DHT22;1493;51.496;7.210;2024-01-27T06:13:12;2.50;99.90
2967;DHT22;1493;51.496;7.210;2024-01-27T06:15:39;2.40;99.90
2967;DHT22;1493;51.496;7.210;2024-01-27T06:18:06;2.40;99.90
2967;DHT22;1493;51.496;7.210;2024-01-27T06:20:33;2.40;99.90
2967;DHT22;1493;51.496;7.210;2024-01-27T06:23:00;2.40;99.90
2967;DHT22;1493;51.496;7.210;2024-01-27T06:25:28;2.40;99.90
2967;DHT22;1493;51.496;7.210;2024-01-27T06:27:55;2.40;99.90
2967;DHT22;1493;51.496;7.210;2024-01-27T06:30:21;2.40;99.90
2967;DHT22;1493;51.496;7.210;2024-01-27T06:32:48;2.50;99.90
2967;DHT22;1493;51.496;7.210;2024-01-27T06:35:15;2.50;99.90
2967;DHT22;1493;51.496;7.210;2024-01-27T06:37:42;2.40;99.90
2967;DHT22;1493;51.496;7.210;2024-01-27T06:40:10;2.40;99.90
2967;DHT22;1493;51.496;7.210;2024-01-27T06:42:38;2.50;99.90
2967;DHT22;1493;51.496;7.210;2024-01-27T06:45:05;2.50;99.90
2967;DHT22;1493;51.496;7.210;2024-01-27T06:47:33;2.50;99.90
2967;DHT22;1493;51.496;7.210;2024-01-27T06:50:00;2.50;99.90
2967;DHT22;1493;51.496;7.210;2024-01-27T06:52:27;2.50;99.90
2967;DHT22;1493;51.496;7.210;2024-01-27T06:54:54;2.40;99.90
2967;DHT22;1493;51.496;7.210;2024-01-27T06:57:22;2.40;99.90
2967;DHT22;1493;51.496;7.210;2024-01-27T06:59:51;2.40;99.90
2967;DHT22;1493;51.496;7.210;2024-01-27T07:02:22;2.30;99.90
2967;DHT22;1493;51.496;7.210;2024-01-27T07:04:52;2.30;99.90
2967;DHT22;1493;51.496;7.210;2024-01-27T07:07:22;2.30;99.90
2967;DHT22;1493;51.496;7.210;2024-01-27T07:09:49;2.30;99.90
2967;DHT22;1493;51.496;7.210;2024-01-27T07:12:16;2.20;99.90
2967;DHT22;1493;51.496;7.210;2024-01-27T07:14:43;2.30;99.90
2967;DHT22;1493;51.496;7.210;2024-01-27T07:17:11;2.30;99.90
2967;DHT22;1493;51.496;7.210;2024-01-27T07:19:38;2.30;99.90
2967;DHT22;1493;51.496;7.210;2024-01-27T07:22:05;2.20;99.90
2967;DHT22;1493;51.496;7.210;2024-01-27T07:24:32;2.20;99.90
2967;DHT22;1493;51.496;7.210;2024-01-27T07:27:00;2.30;99.90
2967;DHT22;1493;51.496;7.210;2024-01-27T07:29:27;2.30;99.90
2967;DHT22;1493;51.496;7.210;2024-01-27T07:31:54;2.30;99.90
2967;DHT22;1493;51.496;7.210;2024-01-27T07:34:22;2.30;99.90
2967;DHT22;1493;51.496;7.210;2024-01-27T07:36:49;2.30;99.90
2967;DHT22;1493;51.496;7.210;2024-01-27T07:39:15;2.30;99.90
2967;DHT22;1493;51.496;7.210;2024-01-27T07:41:42;2.30;99.90
2967;DHT22;1493;51.496;7.210;2024-01-27T07:44:10;2.40;99.90
2967;DHT22;1493;51.496;7.210;2024-01-27T07:46:37;2.40;99.90
2967;DHT22;1493;51.496;7.210;2024-01-27T07:49:05;2.40;99.90
2967;DHT22;1493;51.496;7.210;2024-01-27T07:51:34;2.40;99.90
2967;DHT22;1493;51.496;7.210;2024-01-27T07:54:01;2.40;99.90
2967;DHT22;1493;51.496;7.210;2024-01-27T07:56:28;2.40;99.90
2967;DHT22;1493;51.496;7.210;2024-01-27T07:58:54;2.50;99.90
2967;DHT22;1493;51.496;7.210;2024-01-27T08:01:24;2.50;99.90
2967;DHT22;1493;51.496;7.210;2024-01-27T08:03:51;2.60;99.90
2967;DHT22;1493;51.496;7.210;2024-01-27T08:06:19;2.60;99.90
2967;DHT22;1493;51.496;7.210;2024-01-27T08:08:48;2.70;99.90
2967;DHT22;1493;51.496;7.210;2024-01-27T08:11:15;2.70;99.90
2967;DHT22;1493;51.496;7.210;2024-01-27T08:13:43;2.80;99.90
2967;DHT22;1493;51.496;7.210;2024-01-27T08:16:10;2.80;99.90
2967;DHT22;1493;51.496;7.210;2024-01-27T08:18:38;2.80;99.90
2967;DHT22;1493;51.496;7.210;2024-01-27T08:21:05;2.90;99.90
2967;DHT22;1493;51.496;7.210;2024-01-27T08:23:32;2.90;99.90
2967;DHT22;1493;51.496;7.210;2024-01-27T08:26:00;2.90;99.90
2967;DHT22;1493;51.496;7.210;2024-01-27T08:28:27;3.00;99.90
2967;DHT22;1493;51.496;7.210;2024-01-27T08:30:54;3.10;99.90
2967;DHT22;1493;51.496;7.210;2024-01-27T08:33:21;3.20;99.90
2967;DHT22;1493;51.496;7.210;2024-01-27T08:35:47;3.30;99.90
2967;DHT22;1493;51.496;7.210;2024-01-27T08:38:14;3.30;99.90
2967;DHT22;1493;51.496;7.210;2024-01-27T08:40:41;3.30;99.90
2967;DHT22;1493;51.496;7.210;2024-01-27T08:43:09;3.40;99.90
2967;DHT22;1493;51.496;7.210;2024-01-27T08:45:37;3.40;99.90
2967;DHT22;1493;51.496;7.210;2024-01-27T08:48:05;3.50;99.90
2967;DHT22;1493;51.496;7.210;2024-01-27T08:50:32;3.50;99.90
2967;DHT22;1493;51.496;7.210;2024-01-27T08:52:59;3.60;99.90
2967;DHT22;1493;51.496;7.210;2024-01-27T08:55:27;3.70;99.90
2967;DHT22;1493;51.496;7.210;2024-01-27T08:57:54;3.70;99.90
2967;DHT22;1493;51.496;7.210;2024-01-27T09:00:23;3.80;99.90
2967;DHT22;1493;51.496;7.210;2024-01-27T09:02:50;3.90;99.90
2967;DHT22;1493;51.496;7.210;2024-01-27T09:05:17;3.90;99.90
2967;DHT22;1493;51.496;7.210;2024-01-27T09:07:44;3.90;99.90
2967;DHT22;1493;51.496;7.210;2024-01-27T09:10:12;4.00;99.90
2967;DHT22;1493;51.496;7.210;2024-01-27T09:12:41;4.10;99.90
2967;DHT22;1493;51.496;7.210;2024-01-27T09:15:08;4.20;99.90
2967;DHT22;1493;51.496;7.210;2024-01-27T09:17:36;4.20;99.90
2967;DHT22;1493;51.496;7.210;2024-01-27T09:20:04;4.30;99.90
2967;DHT22;1493;51.496;7.210;2024-01-27T09:22:31;4.40;99.90
2967;DHT22;1493;51.496;7.210;2024-01-27T09:24:58;4.40;99.90
2967;DHT22;1493;51.496;7.210;2024-01-27T09:27:25;4.50;99.90
2967;DHT22;1493;51.496;7.210;2024-01-27T09:29:55;4.60;99.90
2967;DHT22;1493;51.496;7.210;2024-01-27T09:32:26;4.70;99.90
2967;DHT22;1493;51.496;7.210;2024-01-27T09:34:55;4.70;99.90
2967;DHT22;1493;51.496;7.210;2024-01-27T09:37:21;4.80;99.90
2967;DHT22;1493;51.496;7.210;2024-01-27T09:39:48;4.90;99.90
2967;DHT22;1493;51.496;7.210;2024-01-27T09:42:15;5.00;99.90
2967;DHT22;1493;51.496;7.210;2024-01-27T09:44:43;5.00;99.90
2967;DHT22;1493;51.496;7.210;2024-01-27T09:47:11;5.10;99.90
2967;DHT22;1493;51.496;7.210;2024-01-27T09:49:39;5.20;99.90
2967;DHT22;1493;51.496;7.210;2024-01-27T09:52:09;5.30;99.90
2967;DHT22;1493;51.496;7.210;2024-01-27T09:54:35;5.40;99.90
2967;DHT22;1493;51.496;7.210;2024-01-27T09:57:03;5.40;99.90
2967;DHT22;1493;51.496;7.210;2024-01-27T09:59:31;5.50;99.90
2967;DHT22;1493;51.496;7.210;2024-01-27T10:02:00;5.50;99.90
2967;DHT22;1493;51.496;7.210;2024-01-27T10:04:29;5.60;99.90
2967;DHT22;1493;51.496;7.210;2024-01-27T10:06:58;5.60;99.90
2967;DHT22;1493;51.496;7.210;2024-01-27T10:09:26;5.70;99.90
2967;DHT22;1493;51.496;7.210;2024-01-27T10:11:54;5.80;99.90
2967;DHT22;1493;51.496;7.210;2024-01-27T10:14:22;5.80;99.90
2967;DHT22;1493;51.496;7.210;2024-01-27T10:16:49;5.80;99.90
2967;DHT22;1493;51.496;7.210;2024-01-27T10:19:17;5.80;99.90
2967;DHT22;1493;51.496;7.210;2024-01-27T10:21:45;5.90;99.90
2967;DHT22;1493;51.496;7.210;2024-01-27T10:24:12;6.00;99.90
2967;DHT22;1493;51.496;7.210;2024-01-27T10:26:40;6.10;99.90
2967;DHT22;1493;51.496;7.210;2024-01-27T10:29:08;6.20;99.90
2967;DHT22;1493;51.496;7.210;2024-01-27T10:31:36;6.50;99.90
2967;DHT22;1493;51.496;7.210;2024-01-27T10:34:03;6.60;99.90
2967;DHT22;1493;51.496;7.210;2024-01-27T10:36:40;6.80;99.90
2967;DHT22;1493;51.496;7.210;2024-01-27T10:39:15;7.10;99.90
2967;DHT22;1493;51.496;7.210;2024-01-27T10:41:45;7.00;99.90
2967;DHT22;1493;51.496;7.210;2024-01-27T10:44:15;6.90;99.90
2967;DHT22;1493;51.496;7.210;2024-01-27T10:46:47;7.00;99.90
2967;DHT22;1493;51.496;7.210;2024-01-27T10:49:15;7.00;99.90
2967;DHT22;1493;51.496;7.210;2024-01-27T10:51:44;6.90;99.90
2967;DHT22;1493;51.496;7.210;2024-01-27T10:54:14;7.00;99.90
2967;DHT22;1493;51.496;7.210;2024-01-27T10:56:44;7.10;99.90
2967;DHT22;1493;51.496;7.210;2024-01-27T10:59:12;7.30;99.90
2967;DHT22;1493;51.496;7.210;2024-01-27T11:01:41;7.60;99.90
2967;DHT22;1493;51.496;7.210;2024-01-27T11:04:11;8.10;99.90
2967;DHT22;1493;51.496;7.210;2024-01-27T11:06:39;8.50;99.90
2967;DHT22;1493;51.496;7.210;2024-01-27T11:09:08;8.60;99.90
2967;DHT22;1493;51.496;7.210;2024-01-27T11:11:37;8.50;99.90
2967;DHT22;1493;51.496;7.210;2024-01-27T11:14:06;8.70;99.90
2967;DHT22;1493;51.496;7.210;2024-01-27T11:16:34;8.90;99.90
2967;DHT22;1493;51.496;7.210;2024-01-27T11:19:01;8.90;99.90
2967;DHT22;1493;51.496;7.210;2024-01-27T11:21:28;9.10;99.90
2967;DHT22;1493;51.496;7.210;2024-01-27T11:23:55;9.00;99.90
2967;DHT22;1493;51.496;7.210;2024-01-27T11:26:23;9.40;99.90
2967;DHT22;1493;51.496;7.210;2024-01-27T11:28:51;9.70;99.90
2967;DHT22;1493;51.496;7.210;2024-01-27T11:31:20;10.00;99.90
2967;DHT22;1493;51.496;7.210;2024-01-27T11:33:49;10.30;99.90
2967;DHT22;1493;51.496;7.210;2024-01-27T11:36:22;11.00;99.90
2967;DHT22;1493;51.496;7.210;2024-01-27T11:38:49;13.10;99.90
2967;DHT22;1493;51.496;7.210;2024-01-27T11:41:24;15.60;99.90
2967;DHT22;1493;51.496;7.210;2024-01-27T11:43:52;17.60;91.80
2967;DHT22;1493;51.496;7.210;2024-01-27T11:46:20;19.20;87.80
2967;DHT22;1493;51.496;7.210;2024-01-27T11:48:47;19.20;78.90
2967;DHT22;1493;51.496;7.210;2024-01-27T11:51:15;19.90;76.70
2967;DHT22;1493;51.496;7.210;2024-01-27T11:53:42;20.20;74.20
2967;DHT22;1493;51.496;7.210;2024-01-27T11:56:10;21.50;71.20
2967;DHT22;1493;51.496;7.210;2024-01-27T11:58:37;21.60;68.40
2967;DHT22;1493;51.496;7.210;2024-01-27T12:01:04;22.80;67.60
2967;DHT22;1493;51.496;7.210;2024-01-27T12:03:32;23.10;64.00
2967;DHT22;1493;51.496;7.210;2024-01-27T12:05:59;22.70;61.40
2967;DHT22;1493;51.496;7.210;2024-01-27T12:08:26;23.50;60.50
2967;DHT22;1493;51.496;7.210;2024-01-27T12:10:53;23.80;59.10
2967;DHT22;1493;51.496;7.210;2024-01-27T12:13:20;24.10;58.20
2967;DHT22;1493;51.496;7.210;2024-01-27T12:15:47;25.00;57.80
2967;DHT22;1493;51.496;7.210;2024-01-27T12:18:14;25.00;56.20
2967;DHT22;1493;51.496;7.210;2024-01-27T12:20:42;25.30;56.00
2967;DHT22;1493;51.496;7.210;2024-01-27T12:23:09;25.00;54.00
2967;DHT22;1493;51.496;7.210;2024-01-27T12:25:36;23.90;54.60
2967;DHT22;1493;51.496;7.210;2024-01-27T12:28:03;23.70;55.70
2967;DHT22;1493;51.496;7.210;2024-01-27T12:30:32;24.40;55.10
2967;DHT22;1493;51.496;7.210;2024-01-27T12:32:59;24.60;54.30
2967;DHT22;1493;51.496;7.210;2024-01-27T12:35:26;23.80;53.50
2967;DHT22;1493;51.496;7.210;2024-01-27T12:37:59;22.80;53.90
2967;DHT22;1493;51.496;7.210;2024-01-27T12:40:26;21.10;54.50
2967;DHT22;1493;51.496;7.210;2024-01-27T12:42:53;20.10;56.10
2967;DHT22;1493;51.496;7.210;2024-01-27T12:45:20;20.30;57.00
2967;DHT22;1493;51.496;7.210;2024-01-27T12:47:47;19.50;56.30
2967;DHT22;1493;51.496;7.210;2024-01-27T12:50:14;18.90;56.60
2967;DHT22;1493;51.496;7.210;2024-01-27T12:52:42;17.60;58.00
2967;DHT22;1493;51.496;7.210;2024-01-27T12:55:10;16.80;59.20
2967;DHT22;1493;51.496;7.210;2024-01-27T12:57:39;16.50;60.90
2967;DHT22;1493;51.496;7.210;2024-01-27T13:00:07;16.10;62.70
2967;DHT22;1493;51.496;7.210;2024-01-27T13:02:35;16.20;63.00
2967;DHT22;1493;51.496;7.210;2024-01-27T13:05:02;16.50;62.50
2967;DHT22;1493;51.496;7.210;2024-01-27T13:07:29;16.70;61.80
2967;DHT22;1493;51.496;7.210;2024-01-27T13:09:56;16.10;60.70
2967;DHT22;1493;51.496;7.210;2024-01-27T13:12:24;15.30;61.90
2967;DHT22;1493;51.496;7.210;2024-01-27T13:14:51;13.90;64.20
2967;DHT22;1493;51.496;7.210;2024-01-27T13:17:20;13.70;66.40
2967;DHT22;1493;51.496;7.210;2024-01-27T13:19:47;13.80;67.20
2967;DHT22;1493;51.496;7.210;2024-01-27T13:22:17;13.40;66.90
2967;DHT22;1493;51.496;7.210;2024-01-27T13:24:45;13.40;67.10
2967;DHT22;1493;51.496;7.210;2024-01-27T13:27:13;13.50;67.90
2967;DHT22;1493;51.496;7.210;2024-01-27T13:29:41;13.40;68.30
2967;DHT22;1493;51.496;7.210;2024-01-27T13:32:11;13.10;68.30
2967;DHT22;1493;51.496;7.210;2024-01-27T13:34:37;13.00;68.90
2967;DHT22;1493;51.496;7.210;2024-01-27T13:37:04;12.50;69.10
2967;DHT22;1493;51.496;7.210;2024-01-27T13:39:31;12.40;70.40
2967;DHT22;1493;51.496;7.210;2024-01-27T13:42:01;12.40;71.20
2967;DHT22;1493;51.496;7.210;2024-01-27T13:44:27;12.50;71.60
2967;DHT22;1493;51.496;7.210;2024-01-27T13:46:56;12.80;71.20
2967;DHT22;1493;51.496;7.210;2024-01-27T13:49:27;12.10;70.40
2967;DHT22;1493;51.496;7.210;2024-01-27T13:51:54;12.10;71.60
2967;DHT22;1493;51.496;7.210;2024-01-27T13:54:21;12.00;72.70
2967;DHT22;1493;51.496;7.210;2024-01-27T13:56:48;12.00;73.50
2967;DHT22;1493;51.496;7.210;2024-01-27T13:59:14;11.90;72.20
2967;DHT22;1493;51.496;7.210;2024-01-27T14:01:43;11.80;71.80
2967;DHT22;1493;51.496;7.210;2024-01-27T14:04:11;11.90;73.20
2967;DHT22;1493;51.496;7.210;2024-01-27T14:06:38;12.00;73.80
2967;DHT22;1493;51.496;7.210;2024-01-27T14:09:05;11.80;73.00
2967;DHT22;1493;51.496;7.210;2024-01-27T14:11:32;11.50;72.90
2967;DHT22;1493;51.496;7.210;2024-01-27T14:13:59;11.20;73.10
2967;DHT22;1493;51.496;7.210;2024-01-27T14:16:26;10.80;74.10
2967;DHT22;1493;51.496;7.210;2024-01-27T14:18:54;10.20;75.20
2967;DHT22;1493;51.496;7.210;2024-01-27T14:21:22;9.80;78.60
2967;DHT22;1493;51.496;7.210;2024-01-27T14:23:49;9.50;80.90
2967;DHT22;1493;51.496;7.210;2024-01-27T14:26:21;9.40;83.00
2967;DHT22;1493;51.496;7.210;2024-01-27T14:28:48;9.30;85.60
2967;DHT22;1493;51.496;7.210;2024-01-27T14:31:15;9.20;89.00
2967;DHT22;1493;51.496;7.210;2024-01-27T14:33:43;9.20;90.00
2967;DHT22;1493;51.496;7.210;2024-01-27T14:36:10;9.10;92.70
2967;DHT22;1493;51.496;7.210;2024-01-27T14:38:38;9.20;94.10
2967;DHT22;1493;51.496;7.210;2024-01-27T14:41:06;9.10;95.10
2967;DHT22;1493;51.496;7.210;2024-01-27T14:43:33;9.10;96.00
2967;DHT22;1493;51.496;7.210;2024-01-27T14:46:03;8.90;99.90
2967;DHT22;1493;51.496;7.210;2024-01-27T14:48:30;8.90;99.90
2967;DHT22;1493;51.496;7.210;2024-01-27T14:50:57;8.90;99.90
2967;DHT22;1493;51.496;7.210;2024-01-27T14:53:24;8.90;99.90
2967;DHT22;1493;51.496;7.210;2024-01-27T14:55:53;8.80;99.90
2967;DHT22;1493;51.496;7.210;2024-01-27T14:58:21;8.80;99.90
2967;DHT22;1493;51.496;7.210;2024-01-27T15:00:48;8.80;99.90
2967;DHT22;1493;51.496;7.210;2024-01-27T15:03:17;8.90;99.90
2967;DHT22;1493;51.496;7.210;2024-01-27T15:05:44;8.80;99.90
2967;DHT22;1493;51.496;7.210;2024-01-27T15:08:11;8.70;99.90
2967;DHT22;1493;51.496;7.210;2024-01-27T15:10:38;8.70;99.90
2967;DHT22;1493;51.496;7.210;2024-01-27T15:13:09;8.60;99.90
2967;DHT22;1493;51.496;7.210;2024-01-27T15:15:37;8.60;99.90
2967;DHT22;1493;51.496;7.210;2024-01-27T15:18:04;8.40;99.90
2967;DHT22;1493;51.496;7.210;2024-01-27T15:20:31;8.40;99.90
2967;DHT22;1493;51.496;7.210;2024-01-27T15:22:58;8.30;99.90
2967;DHT22;1493;51.496;7.210;2024-01-27T15:25:25;8.30;99.90
2967;DHT22;1493;51.496;7.210;2024-01-27T15:27:52;8.20;99.90
2967;DHT22;1493;51.496;7.210;2024-01-27T15:30:20;8.20;99.90
2967;DHT22;1493;51.496;7.210;2024-01-27T15:32:47;8.20;99.90
2967;DHT22;1493;51.496;7.210;2024-01-27T15:35:14;8.00;99.90
2967;DHT22;1493;51.496;7.210;2024-01-27T15:37:41;8.10;99.90
2967;DHT22;1493;51.496;7.210;2024-01-27T15:40:09;8.00;99.90
2967;DHT22;1493;51.496;7.210;2024-01-27T15:42:36;8.00;99.90
2967;DHT22;1493;51.496;7.210;2024-01-27T15:45:03;7.80;99.90
2967;DHT22;1493;51.496;7.210;2024-01-27T15:47:32;7.70;99.90
2967;DHT22;1493;51.496;7.210;2024-01-27T15:49:59;7.60;99.90
2967;DHT22;1493;51.496;7.210;2024-01-27T15:52:29;7.50;99.90
2967;DHT22;1493;51.496;7.210;2024-01-27T15:54:56;7.40;99.90
2967;DHT22;1493;51.496;7.210;2024-01-27T15:57:23;7.30;99.90
2967;DHT22;1493;51.496;7.210;2024-01-27T15:59:50;7.20;99.90
2967;DHT22;1493;51.496;7.210;2024-01-27T16:02:17;7.10;99.90
2967;DHT22;1493;51.496;7.210;2024-01-27T16:04:45;6.90;99.90
2967;DHT22;1493;51.496;7.210;2024-01-27T16:07:12;6.80;99.90
2967;DHT22;1493;51.496;7.210;2024-01-27T16:09:41;6.70;99.90
2967;DHT22;1493;51.496;7.210;2024-01-27T16:12:12;6.50;99.90
2967;DHT22;1493;51.496;7.210;2024-01-27T16:14:39;6.40;99.90